sensor_id;sensor_type;location;lat;lon;timestamp;P1;durP1;ratioP1;P2;durP2;ratioP2
24467;SDS011;12634;50.852;5.676;2023-06-10T00:02:01;9.23;;;6.30;;
24467;SDS011;12634;50.852;5.676;2023-06-10T00:04:28;9.07;;;6.13;;
24467;SDS011;12634;50.852;5.676;2023-06-10T00:06:56;9.38;;;6.20;;
24467;SDS011;12634;50.852;5.676;2023-06-10T00:09:23;7.95;;;5.80;;
24467;SDS011;12634;50.852;5.676;2023-06-10T00:11:52;8.98;;;5.78;;
24467;SDS011;12634;50.852;5.676;2023-06-10T00:14:19;8.55;;;5.50;;
24467;SDS011;12634;50.852;5.676;2023-06-10T00:16:46;9.88;;;5.93;;
24467;SDS011;12634;50.852;5.676;2023-06-10T00:19:14;11.70;;;6.38;;
24467;SDS011;12634;50.852;5.676;2023-06-10T00:21:43;11.45;;;6.05;;
24467;SDS011;12634;50.852;5.676;2023-06-10T00:24:10;10.18;;;5.97;;
24467;SDS011;12634;50.852;5.676;2023-06-10T00:26:38;11.43;;;6.22;;
24467;SDS011;12634;50.852;5.676;2023-06-10T00:29:07;11.32;;;5.80;;
24467;SDS011;12634;50.852;5.676;2023-06-10T00:31:35;10.98;;;5.53;;
24467;SDS011;12634;50.852;5.676;2023-06-10T00:34:03;8.18;;;6.15;;
24467;SDS011;12634;50.852;5.676;2023-06-10T00:36:30;8.77;;;6.25;;
24467;SDS011;12634;50.852;5.676;2023-06-10T00:38:58;11.82;;;6.75;;
24467;SDS011;12634;50.852;5.676;2023-06-10T00:41:25;11.82;;;6.28;;
24467;SDS011;12634;50.852;5.676;2023-06-10T00:43:52;9.55;;;6.40;;
24467;SDS011;12634;50.852;5.676;2023-06-10T00:46:21;10.98;;;6.07;;
24467;SDS011;12634;50.852;5.676;2023-06-10T00:48:49;9.15;;;6.57;;
24467;SDS011;12634;50.852;5.676;2023-06-10T00:51:16;9.02;;;6.07;;
24467;SDS011;12634;50.852;5.676;2023-06-10T00:53:45;11.05;;;5.82;;
24467;SDS011;12634;50.852;5.676;2023-06-10T00:56:12;10.25;;;6.55;;
24467;SDS011;12634;50.852;5.676;2023-06-10T00:58:40;7.65;;;6.13;;
24467;SDS011;12634;50.852;5.676;2023-06-10T01:01:07;10.32;;;6.55;;
24467;SDS011;12634;50.852;5.676;2023-06-10T01:03:37;8.60;;;6.22;;
24467;SDS011;12634;50.852;5.676;2023-06-10T01:06:06;9.13;;;6.32;;
24467;SDS011;12634;50.852;5.676;2023-06-10T01:08:47;11.63;;;6.85;;
24467;SDS011;12634;50.852;5.676;2023-06-10T01:11:20;8.88;;;6.53;;
24467;SDS011;12634;50.852;5.676;2023-06-10T01:13:51;7.47;;;5.63;;
24467;SDS011;12634;50.852;5.676;2023-06-10T01:16:22;8.13;;;6.00;;
24467;SDS011;12634;50.852;5.676;2023-06-10T01:18:52;8.25;;;6.70;;
24467;SDS011;12634;50.852;5.676;2023-06-10T01:21:21;8.75;;;6.75;;
24467;SDS011;12634;50.852;5.676;2023-06-10T01:23:50;13.43;;;7.40;;
24467;SDS011;12634;50.852;5.676;2023-06-10T01:26:17;7.80;;;6.45;;
24467;SDS011;12634;50.852;5.676;2023-06-10T01:28:49;11.10;;;8.25;;
24467;SDS011;12634;50.852;5.676;2023-06-10T01:31:20;12.85;;;8.63;;
24467;SDS011;12634;50.852;5.676;2023-06-10T01:33:59;10.20;;;8.82;;
24467;SDS011;12634;50.852;5.676;2023-06-10T01:36:29;13.43;;;9.30;;
24467;SDS011;12634;50.852;5.676;2023-06-10T01:39:00;9.60;;;8.65;;
24467;SDS011;12634;50.852;5.676;2023-06-10T01:41:28;12.70;;;8.25;;
24467;SDS011;12634;50.852;5.676;2023-06-10T01:43:55;9.43;;;7.07;;
24467;SDS011;12634;50.852;5.676;2023-06-10T01:46:23;8.30;;;7.05;;
24467;SDS011;12634;50.852;5.676;2023-06-10T01:48:50;11.57;;;8.10;;
24467;SDS011;12634;50.852;5.676;2023-06-10T01:51:17;11.15;;;7.72;;
24467;SDS011;12634;50.852;5.676;2023-06-10T01:53:45;15.00;;;7.25;;
24467;SDS011;12634;50.852;5.676;2023-06-10T01:56:13;9.02;;;7.35;;
24467;SDS011;12634;50.852;5.676;2023-06-10T01:58:44;9.70;;;6.95;;
24467;SDS011;12634;50.852;5.676;2023-06-10T02:01:11;10.10;;;7.00;;
24467;SDS011;12634;50.852;5.676;2023-06-10T02:03:38;12.65;;;6.90;;
24467;SDS011;12634;50.852;5.676;2023-06-10T02:06:06;11.30;;;7.07;;
24467;SDS011;12634;50.852;5.676;2023-06-10T02:08:33;8.38;;;6.80;;
24467;SDS011;12634;50.852;5.676;2023-06-10T02:11:02;8.25;;;7.20;;
24467;SDS011;12634;50.852;5.676;2023-06-10T02:13:29;13.00;;;7.60;;
24467;SDS011;12634;50.852;5.676;2023-06-10T02:15:56;11.55;;;6.93;;
24467;SDS011;12634;50.852;5.676;2023-06-10T02:18:23;11.50;;;7.40;;
24467;SDS011;12634;50.852;5.676;2023-06-10T02:20:52;10.85;;;7.15;;
24467;SDS011;12634;50.852;5.676;2023-06-10T02:23:19;8.27;;;6.90;;
24467;SDS011;12634;50.852;5.676;2023-06-10T02:25:46;10.52;;;6.85;;
24467;SDS011;12634;50.852;5.676;2023-06-10T02:28:15;11.82;;;7.43;;
24467;SDS011;12634;50.852;5.676;2023-06-10T02:30:42;9.80;;;7.18;;
24467;SDS011;12634;50.852;5.676;2023-06-10T02:33:10;9.95;;;7.25;;
24467;SDS011;12634;50.852;5.676;2023-06-10T02:35:37;8.73;;;7.22;;
24467;SDS011;12634;50.852;5.676;2023-06-10T02:38:04;12.10;;;6.43;;
24467;SDS011;12634;50.852;5.676;2023-06-10T02:40:32;8.77;;;6.78;;
24467;SDS011;12634;50.852;5.676;2023-06-10T02:42:59;8.70;;;6.63;;
24467;SDS011;12634;50.852;5.676;2023-06-10T02:45:27;10.68;;;7.03;;
24467;SDS011;12634;50.852;5.676;2023-06-10T02:47:54;8.70;;;6.68;;
24467;SDS011;12634;50.852;5.676;2023-06-10T02:50:21;7.82;;;6.63;;
24467;SDS011;12634;50.852;5.676;2023-06-10T02:52:48;8.15;;;6.60;;
24467;SDS011;12634;50.852;5.676;2023-06-10T02:55:16;11.90;;;6.85;;
24467;SDS011;12634;50.852;5.676;2023-06-10T02:57:43;11.48;;;7.38;;
24467;SDS011;12634;50.852;5.676;2023-06-10T03:00:10;8.82;;;6.93;;
24467;SDS011;12634;50.852;5.676;2023-06-10T03:02:40;10.25;;;7.40;;
24467;SDS011;12634;50.852;5.676;2023-06-10T03:05:08;12.50;;;7.40;;
24467;SDS011;12634;50.852;5.676;2023-06-10T03:07:36;9.73;;;7.38;;
24467;SDS011;12634;50.852;5.676;2023-06-10T03:10:03;11.23;;;7.15;;
24467;SDS011;12634;50.852;5.676;2023-06-10T03:12:32;10.68;;;6.75;;
24467;SDS011;12634;50.852;5.676;2023-06-10T03:14:59;9.60;;;7.55;;
24467;SDS011;12634;50.852;5.676;2023-06-10T03:17:26;11.73;;;8.10;;
24467;SDS011;12634;50.852;5.676;2023-06-10T03:19:54;9.88;;;7.65;;
24467;SDS011;12634;50.852;5.676;2023-06-10T03:22:22;12.77;;;7.85;;
24467;SDS011;12634;50.852;5.676;2023-06-10T03:24:49;10.68;;;8.60;;
24467;SDS011;12634;50.852;5.676;2023-06-10T03:27:16;10.15;;;7.95;;
24467;SDS011;12634;50.852;5.676;2023-06-10T03:29:43;11.30;;;8.05;;
24467;SDS011;12634;50.852;5.676;2023-06-10T03:32:11;10.02;;;7.45;;
24467;SDS011;12634;50.852;5.676;2023-06-10T03:34:38;11.30;;;8.05;;
24467;SDS011;12634;50.852;5.676;2023-06-10T03:37:06;12.27;;;7.82;;
24467;SDS011;12634;50.852;5.676;2023-06-10T03:39:34;11.27;;;7.40;;
24467;SDS011;12634;50.852;5.676;2023-06-10T03:42:01;10.25;;;7.63;;
24467;SDS011;12634;50.852;5.676;2023-06-10T03:44:28;8.88;;;7.55;;
24467;SDS011;12634;50.852;5.676;2023-06-10T03:46:55;10.90;;;7.93;;
24467;SDS011;12634;50.852;5.676;2023-06-10T03:49:22;9.90;;;8.00;;
24467;SDS011;12634;50.852;5.676;2023-06-10T03:51:51;9.50;;;7.53;;
24467;SDS011;12634;50.852;5.676;2023-06-10T03:54:20;10.50;;;8.35;;
24467;SDS011;12634;50.852;5.676;2023-06-10T03:56:48;8.80;;;7.72;;
24467;SDS011;12634;50.852;5.676;2023-06-10T03:59:15;11.48;;;7.70;;
24467;SDS011;12634;50.852;5.676;2023-06-10T04:01:43;9.90;;;7.68;;
24467;SDS011;12634;50.852;5.676;2023-06-10T04:04:11;9.07;;;7.88;;
24467;SDS011;12634;50.852;5.676;2023-06-10T04:06:40;12.30;;;7.80;;
24467;SDS011;12634;50.852;5.676;2023-06-10T04:09:08;9.73;;;8.73;;
24467;SDS011;12634;50.852;5.676;2023-06-10T04:11:37;11.80;;;8.73;;
24467;SDS011;12634;50.852;5.676;2023-06-10T04:14:04;14.35;;;9.48;;
24467;SDS011;12634;50.852;5.676;2023-06-10T04:16:31;12.57;;;9.38;;
24467;SDS011;12634;50.852;5.676;2023-06-10T04:18:59;10.95;;;9.07;;
24467;SDS011;12634;50.852;5.676;2023-06-10T04:21:26;11.43;;;8.52;;
24467;SDS011;12634;50.852;5.676;2023-06-10T04:23:53;10.48;;;8.68;;
24467;SDS011;12634;50.852;5.676;2023-06-10T04:26:20;14.98;;;8.65;;
24467;SDS011;12634;50.852;5.676;2023-06-10T04:28:49;10.73;;;8.85;;
24467;SDS011;12634;50.852;5.676;2023-06-10T04:31:16;12.45;;;9.07;;
24467;SDS011;12634;50.852;5.676;2023-06-10T04:33:44;12.68;;;9.10;;
24467;SDS011;12634;50.852;5.676;2023-06-10T04:36:11;10.55;;;8.07;;
24467;SDS011;12634;50.852;5.676;2023-06-10T04:38:39;10.95;;;8.98;;
24467;SDS011;12634;50.852;5.676;2023-06-10T04:41:07;10.95;;;8.60;;
24467;SDS011;12634;50.852;5.676;2023-06-10T04:43:34;11.30;;;8.85;;
24467;SDS011;12634;50.852;5.676;2023-06-10T04:46:02;11.30;;;9.27;;
24467;SDS011;12634;50.852;5.676;2023-06-10T04:48:29;11.65;;;9.20;;
24467;SDS011;12634;50.852;5.676;2023-06-10T04:50:57;12.02;;;9.38;;
24467;SDS011;12634;50.852;5.676;2023-06-10T04:53:25;10.50;;;8.95;;
24467;SDS011;12634;50.852;5.676;2023-06-10T04:55:53;11.63;;;9.25;;
24467;SDS011;12634;50.852;5.676;2023-06-10T04:58:21;14.20;;;9.23;;
24467;SDS011;12634;50.852;5.676;2023-06-10T05:00:48;10.18;;;8.70;;
24467;SDS011;12634;50.852;5.676;2023-06-10T05:03:16;12.27;;;9.60;;
24467;SDS011;12634;50.852;5.676;2023-06-10T05:05:43;13.10;;;9.75;;
24467;SDS011;12634;50.852;5.676;2023-06-10T05:08:11;13.27;;;8.88;;
24467;SDS011;12634;50.852;5.676;2023-06-10T05:10:38;12.80;;;9.18;;
24467;SDS011;12634;50.852;5.676;2023-06-10T05:13:05;12.45;;;8.35;;
24467;SDS011;12634;50.852;5.676;2023-06-10T05:15:32;10.88;;;8.07;;
24467;SDS011;12634;50.852;5.676;2023-06-10T05:17:59;8.60;;;7.70;;
24467;SDS011;12634;50.852;5.676;2023-06-10T05:20:29;9.05;;;8.05;;
24467;SDS011;12634;50.852;5.676;2023-06-10T05:22:56;10.13;;;7.68;;
24467;SDS011;12634;50.852;5.676;2023-06-10T05:25:23;11.40;;;6.95;;
24467;SDS011;12634;50.852;5.676;2023-06-10T05:27:52;8.73;;;7.10;;
24467;SDS011;12634;50.852;5.676;2023-06-10T05:30:19;9.02;;;6.85;;
24467;SDS011;12634;50.852;5.676;2023-06-10T05:32:46;9.10;;;6.85;;
24467;SDS011;12634;50.852;5.676;2023-06-10T05:35:14;7.80;;;6.35;;
24467;SDS011;12634;50.852;5.676;2023-06-10T05:37:42;10.07;;;7.00;;
24467;SDS011;12634;50.852;5.676;2023-06-10T05:40:10;9.32;;;6.72;;
24467;SDS011;12634;50.852;5.676;2023-06-10T05:42:37;9.15;;;6.57;;
24467;SDS011;12634;50.852;5.676;2023-06-10T05:45:05;12.43;;;6.78;;
24467;SDS011;12634;50.852;5.676;2023-06-10T05:47:33;9.95;;;7.40;;
24467;SDS011;12634;50.852;5.676;2023-06-10T05:50:00;10.85;;;7.45;;
24467;SDS011;12634;50.852;5.676;2023-06-10T05:52:27;8.20;;;6.95;;
24467;SDS011;12634;50.852;5.676;2023-06-10T05:54:56;10.88;;;6.72;;
24467;SDS011;12634;50.852;5.676;2023-06-10T05:57:24;10.45;;;7.03;;
24467;SDS011;12634;50.852;5.676;2023-06-10T05:59:51;8.65;;;6.47;;
24467;SDS011;12634;50.852;5.676;2023-06-10T06:02:18;10.35;;;6.47;;
24467;SDS011;12634;50.852;5.676;2023-06-10T06:04:46;10.00;;;6.50;;
24467;SDS011;12634;50.852;5.676;2023-06-10T06:07:13;8.18;;;5.78;;
24467;SDS011;12634;50.852;5.676;2023-06-10T06:09:40;11.35;;;6.55;;
24467;SDS011;12634;50.852;5.676;2023-06-10T06:12:09;7.30;;;5.68;;
24467;SDS011;12634;50.852;5.676;2023-06-10T06:14:37;8.85;;;6.35;;
24467;SDS011;12634;50.852;5.676;2023-06-10T06:17:05;8.65;;;5.95;;
24467;SDS011;12634;50.852;5.676;2023-06-10T06:19:32;8.00;;;5.80;;
24467;SDS011;12634;50.852;5.676;2023-06-10T06:22:00;9.40;;;5.75;;
24467;SDS011;12634;50.852;5.676;2023-06-10T06:24:27;6.43;;;5.20;;
24467;SDS011;12634;50.852;5.676;2023-06-10T06:26:54;8.55;;;6.18;;
24467;SDS011;12634;50.852;5.676;2023-06-10T06:29:23;6.82;;;5.07;;
24467;SDS011;12634;50.852;5.676;2023-06-10T06:31:50;8.77;;;5.25;;
24467;SDS011;12634;50.852;5.676;2023-06-10T06:34:17;8.25;;;5.00;;
24467;SDS011;12634;50.852;5.676;2023-06-10T06:36:44;6.88;;;4.97;;
24467;SDS011;12634;50.852;5.676;2023-06-10T06:39:12;7.28;;;5.70;;
24467;SDS011;12634;50.852;5.676;2023-06-10T06:41:39;8.88;;;5.47;;
24467;SDS011;12634;50.852;5.676;2023-06-10T06:44:06;6.93;;;4.85;;
24467;SDS011;12634;50.852;5.676;2023-06-10T06:46:34;7.05;;;5.38;;
24467;SDS011;12634;50.852;5.676;2023-06-10T06:49:02;10.57;;;5.25;;
24467;SDS011;12634;50.852;5.676;2023-06-10T06:51:29;8.45;;;5.20;;
24467;SDS011;12634;50.852;5.676;2023-06-10T06:53:56;6.03;;;4.95;;
24467;SDS011;12634;50.852;5.676;2023-06-10T06:56:24;8.10;;;5.28;;
24467;SDS011;12634;50.852;5.676;2023-06-10T06:58:52;6.32;;;4.72;;
24467;SDS011;12634;50.852;5.676;2023-06-10T07:01:19;11.00;;;4.97;;
24467;SDS011;12634;50.852;5.676;2023-06-10T07:03:48;25.30;;;5.90;;
24467;SDS011;12634;50.852;5.676;2023-06-10T07:06:15;7.30;;;5.03;;
24467;SDS011;12634;50.852;5.676;2023-06-10T07:08:42;7.15;;;4.90;;
24467;SDS011;12634;50.852;5.676;2023-06-10T07:11:09;10.77;;;6.07;;
24467;SDS011;12634;50.852;5.676;2023-06-10T07:13:36;9.25;;;5.00;;
24467;SDS011;12634;50.852;5.676;2023-06-10T07:16:03;9.02;;;4.80;;
24467;SDS011;12634;50.852;5.676;2023-06-10T07:18:30;6.47;;;4.90;;
24467;SDS011;12634;50.852;5.676;2023-06-10T07:20:59;7.85;;;5.22;;
24467;SDS011;12634;50.852;5.676;2023-06-10T07:23:26;6.30;;;5.35;;
24467;SDS011;12634;50.852;5.676;2023-06-10T07:25:53;10.60;;;5.15;;
24467;SDS011;12634;50.852;5.676;2023-06-10T07:28:21;9.32;;;5.20;;
24467;SDS011;12634;50.852;5.676;2023-06-10T07:30:48;6.25;;;5.15;;
24467;SDS011;12634;50.852;5.676;2023-06-10T07:33:15;9.98;;;5.43;;
24467;SDS011;12634;50.852;5.676;2023-06-10T07:35:42;7.75;;;5.35;;
24467;SDS011;12634;50.852;5.676;2023-06-10T07:38:11;8.00;;;4.93;;
24467;SDS011;12634;50.852;5.676;2023-06-10T07:40:38;7.55;;;5.10;;
24467;SDS011;12634;50.852;5.676;2023-06-10T07:43:05;5.53;;;4.45;;
24467;SDS011;12634;50.852;5.676;2023-06-10T07:45:32;7.60;;;4.65;;
24467;SDS011;12634;50.852;5.676;2023-06-10T07:48:00;6.65;;;4.97;;
24467;SDS011;12634;50.852;5.676;2023-06-10T07:50:27;7.32;;;5.00;;
24467;SDS011;12634;50.852;5.676;2023-06-10T07:52:54;8.35;;;5.57;;
24467;SDS011;12634;50.852;5.676;2023-06-10T07:55:23;6.57;;;4.60;;
24467;SDS011;12634;50.852;5.676;2023-06-10T07:57:51;8.93;;;5.00;;
24467;SDS011;12634;50.852;5.676;2023-06-10T08:00:18;7.15;;;4.40;;
24467;SDS011;12634;50.852;5.676;2023-06-10T08:02:46;9.20;;;4.60;;
24467;SDS011;12634;50.852;5.676;2023-06-10T08:05:13;7.82;;;4.40;;
24467;SDS011;12634;50.852;5.676;2023-06-10T08:07:40;7.43;;;4.78;;
24467;SDS011;12634;50.852;5.676;2023-06-10T08:10:08;6.97;;;4.75;;
24467;SDS011;12634;50.852;5.676;2023-06-10T08:12:37;8.05;;;4.95;;
24467;SDS011;12634;50.852;5.676;2023-06-10T08:15:04;7.85;;;5.35;;
24467;SDS011;12634;50.852;5.676;2023-06-10T08:17:32;7.03;;;4.63;;
24467;SDS011;12634;50.852;5.676;2023-06-10T08:20:00;9.55;;;4.53;;
24467;SDS011;12634;50.852;5.676;2023-06-10T08:22:27;7.60;;;4.50;;
24467;SDS011;12634;50.852;5.676;2023-06-10T08:24:55;7.05;;;4.78;;
24467;SDS011;12634;50.852;5.676;2023-06-10T08:27:22;6.18;;;4.80;;
24467;SDS011;12634;50.852;5.676;2023-06-10T08:29:51;7.40;;;4.70;;
24467;SDS011;12634;50.852;5.676;2023-06-10T08:32:18;7.50;;;4.90;;
24467;SDS011;12634;50.852;5.676;2023-06-10T08:34:45;6.80;;;4.25;;
24467;SDS011;12634;50.852;5.676;2023-06-10T08:37:13;7.90;;;4.90;;
24467;SDS011;12634;50.852;5.676;2023-06-10T08:39:40;7.90;;;4.82;;
24467;SDS011;12634;50.852;5.676;2023-06-10T08:42:11;6.97;;;4.60;;
24467;SDS011;12634;50.852;5.676;2023-06-10T08:44:47;7.97;;;4.63;;
24467;SDS011;12634;50.852;5.676;2023-06-10T08:47:19;9.65;;;4.65;;
24467;SDS011;12634;50.852;5.676;2023-06-10T08:49:49;6.68;;;4.60;;
24467;SDS011;12634;50.852;5.676;2023-06-10T08:52:19;7.82;;;4.72;;
24467;SDS011;12634;50.852;5.676;2023-06-10T08:54:48;7.80;;;4.90;;
24467;SDS011;12634;50.852;5.676;2023-06-10T08:57:19;10.77;;;4.90;;
24467;SDS011;12634;50.852;5.676;2023-06-10T08:59:46;7.75;;;4.47;;
24467;SDS011;12634;50.852;5.676;2023-06-10T09:02:14;6.63;;;4.57;;
24467;SDS011;12634;50.852;5.676;2023-06-10T09:04:46;5.35;;;4.13;;
24467;SDS011;12634;50.852;5.676;2023-06-10T09:07:15;7.13;;;4.53;;
24467;SDS011;12634;50.852;5.676;2023-06-10T09:09:42;9.57;;;4.82;;
24467;SDS011;12634;50.852;5.676;2023-06-10T09:12:11;6.93;;;4.85;;
24467;SDS011;12634;50.852;5.676;2023-06-10T09:14:40;8.43;;;4.93;;
24467;SDS011;12634;50.852;5.676;2023-06-10T09:17:08;6.50;;;4.25;;
24467;SDS011;12634;50.852;5.676;2023-06-10T09:19:36;6.70;;;4.63;;
24467;SDS011;12634;50.852;5.676;2023-06-10T09:22:06;9.82;;;4.38;;
24467;SDS011;12634;50.852;5.676;2023-06-10T09:24:33;5.55;;;4.32;;
24467;SDS011;12634;50.852;5.676;2023-06-10T09:27:04;5.72;;;4.07;;
24467;SDS011;12634;50.852;5.676;2023-06-10T09:29:35;9.07;;;4.55;;
24467;SDS011;12634;50.852;5.676;2023-06-10T09:32:13;4.80;;;4.13;;
24467;SDS011;12634;50.852;5.676;2023-06-10T09:34:41;9.25;;;4.60;;
24467;SDS011;12634;50.852;5.676;2023-06-10T09:37:12;7.20;;;4.50;;
24467;SDS011;12634;50.852;5.676;2023-06-10T09:39:39;8.80;;;4.22;;
24467;SDS011;12634;50.852;5.676;2023-06-10T09:42:15;7.20;;;4.85;;
24467;SDS011;12634;50.852;5.676;2023-06-10T09:44:48;7.45;;;4.25;;
24467;SDS011;12634;50.852;5.676;2023-06-10T09:47:19;8.77;;;4.57;;
24467;SDS011;12634;50.852;5.676;2023-06-10T09:49:47;5.53;;;4.63;;
24467;SDS011;12634;50.852;5.676;2023-06-10T09:52:18;6.47;;;4.28;;
24467;SDS011;12634;50.852;5.676;2023-06-10T09:54:49;6.07;;;4.78;;
24467;SDS011;12634;50.852;5.676;2023-06-10T09:57:17;6.97;;;4.18;;
24467;SDS011;12634;50.852;5.676;2023-06-10T09:59:45;5.20;;;4.05;;
24467;SDS011;12634;50.852;5.676;2023-06-10T10:02:15;6.07;;;4.00;;
24467;SDS011;12634;50.852;5.676;2023-06-10T10:04:43;9.73;;;4.68;;
24467;SDS011;12634;50.852;5.676;2023-06-10T10:07:10;8.63;;;4.07;;
24467;SDS011;12634;50.852;5.676;2023-06-10T10:09:39;7.38;;;4.10;;
24467;SDS011;12634;50.852;5.676;2023-06-10T10:12:08;6.63;;;4.10;;
24467;SDS011;12634;50.852;5.676;2023-06-10T10:14:37;5.43;;;3.90;;
24467;SDS011;12634;50.852;5.676;2023-06-10T10:17:06;5.80;;;4.15;;
24467;SDS011;12634;50.852;5.676;2023-06-10T10:19:37;6.10;;;4.35;;
24467;SDS011;12634;50.852;5.676;2023-06-10T10:22:16;6.35;;;4.38;;
24467;SDS011;12634;50.852;5.676;2023-06-10T10:24:51;6.35;;;4.20;;
24467;SDS011;12634;50.852;5.676;2023-06-10T10:27:24;7.57;;;4.07;;
24467;SDS011;12634;50.852;5.676;2023-06-10T10:29:54;8.07;;;4.57;;
24467;SDS011;12634;50.852;5.676;2023-06-10T10:32:26;5.93;;;4.53;;
24467;SDS011;12634;50.852;5.676;2023-06-10T10:35:01;7.80;;;4.22;;
24467;SDS011;12634;50.852;5.676;2023-06-10T10:37:34;8.23;;;4.30;;
24467;SDS011;12634;50.852;5.676;2023-06-10T10:40:03;5.45;;;3.67;;
24467;SDS011;12634;50.852;5.676;2023-06-10T10:42:32;6.88;;;4.40;;
24467;SDS011;12634;50.852;5.676;2023-06-10T10:45:00;6.20;;;4.20;;
24467;SDS011;12634;50.852;5.676;2023-06-10T10:47:28;8.25;;;4.72;;
24467;SDS011;12634;50.852;5.676;2023-06-10T10:49:59;8.88;;;4.03;;
24467;SDS011;12634;50.852;5.676;2023-06-10T10:52:28;9.38;;;4.68;;
24467;SDS011;12634;50.852;5.676;2023-06-10T10:55:21;6.45;;;4.07;;
24467;SDS011;12634;50.852;5.676;2023-06-10T10:57:55;6.97;;;4.22;;
24467;SDS011;12634;50.852;5.676;2023-06-10T11:00:29;6.47;;;4.18;;
24467;SDS011;12634;50.852;5.676;2023-06-10T11:02:58;5.57;;;4.32;;
24467;SDS011;12634;50.852;5.676;2023-06-10T11:05:36;6.35;;;4.15;;
24467;SDS011;12634;50.852;5.676;2023-06-10T11:08:04;7.57;;;4.13;;
24467;SDS011;12634;50.852;5.676;2023-06-10T11:10:35;6.60;;;4.03;;
24467;SDS011;12634;50.852;5.676;2023-06-10T11:13:06;5.03;;;3.90;;
24467;SDS011;12634;50.852;5.676;2023-06-10T11:15:38;7.50;;;4.50;;
24467;SDS011;12634;50.852;5.676;2023-06-10T11:18:10;9.02;;;4.25;;
24467;SDS011;12634;50.852;5.676;2023-06-10T11:20:57;8.02;;;3.88;;
24467;SDS011;12634;50.852;5.676;2023-06-10T11:23:38;4.50;;;4.10;;
24467;SDS011;12634;50.852;5.676;2023-06-10T11:26:14;7.10;;;4.13;;
24467;SDS011;12634;50.852;5.676;2023-06-10T11:31:43;8.43;;;4.30;;
24467;SDS011;12634;50.852;5.676;2023-06-10T11:34:12;7.18;;;4.03;;
24467;SDS011;12634;50.852;5.676;2023-06-10T11:36:40;6.07;;;4.30;;
24467;SDS011;12634;50.852;5.676;2023-06-10T11:39:10;6.45;;;3.83;;
24467;SDS011;12634;50.852;5.676;2023-06-10T11:41:39;6.15;;;3.85;;
24467;SDS011;12634;50.852;5.676;2023-06-10T11:44:07;6.32;;;3.97;;
24467;SDS011;12634;50.852;5.676;2023-06-10T11:46:36;10.05;;;4.68;;
24467;SDS011;12634;50.852;5.676;2023-06-10T11:49:03;6.57;;;4.20;;
24467;SDS011;12634;50.852;5.676;2023-06-10T11:51:32;6.28;;;4.40;;
24467;SDS011;12634;50.852;5.676;2023-06-10T11:54:01;6.35;;;4.20;;
24467;SDS011;12634;50.852;5.676;2023-06-10T11:56:29;6.25;;;4.30;;
24467;SDS011;12634;50.852;5.676;2023-06-10T11:58:59;9.25;;;4.68;;
24467;SDS011;12634;50.852;5.676;2023-06-10T12:01:29;8.23;;;4.33;;
24467;SDS011;12634;50.852;5.676;2023-06-10T12:04:00;9.82;;;4.38;;
24467;SDS011;12634;50.852;5.676;2023-06-10T12:06:37;5.75;;;4.43;;
24467;SDS011;12634;50.852;5.676;2023-06-10T12:09:05;8.30;;;3.92;;
24467;SDS011;12634;50.852;5.676;2023-06-10T12:11:33;10.98;;;4.10;;
24467;SDS011;12634;50.852;5.676;2023-06-10T12:14:03;7.57;;;4.53;;
24467;SDS011;12634;50.852;5.676;2023-06-10T12:16:30;5.28;;;4.20;;
24467;SDS011;12634;50.852;5.676;2023-06-10T12:19:01;6.80;;;4.13;;
24467;SDS011;12634;50.852;5.676;2023-06-10T12:21:29;8.90;;;4.25;;
24467;SDS011;12634;50.852;5.676;2023-06-10T12:24:05;6.85;;;4.07;;
24467;SDS011;12634;50.852;5.676;2023-06-10T12:26:34;11.13;;;5.00;;
24467;SDS011;12634;50.852;5.676;2023-06-10T12:29:19;6.50;;;3.83;;
24467;SDS011;12634;50.852;5.676;2023-06-10T12:31:59;5.95;;;4.05;;
24467;SDS011;12634;50.852;5.676;2023-06-10T12:34:31;5.80;;;4.07;;
24467;SDS011;12634;50.852;5.676;2023-06-10T12:37:00;8.93;;;4.15;;
24467;SDS011;12634;50.852;5.676;2023-06-10T12:39:29;8.88;;;4.22;;
24467;SDS011;12634;50.852;5.676;2023-06-10T12:41:57;4.97;;;4.18;;
24467;SDS011;12634;50.852;5.676;2023-06-10T12:44:32;6.97;;;4.50;;
24467;SDS011;12634;50.852;5.676;2023-06-10T12:47:01;7.40;;;4.63;;
24467;SDS011;12634;50.852;5.676;2023-06-10T12:49:33;6.88;;;4.35;;
24467;SDS011;12634;50.852;5.676;2023-06-10T12:52:01;7.72;;;4.18;;
24467;SDS011;12634;50.852;5.676;2023-06-10T12:54:28;6.47;;;4.03;;
24467;SDS011;12634;50.852;5.676;2023-06-10T12:56:56;6.18;;;4.00;;
24467;SDS011;12634;50.852;5.676;2023-06-10T12:59:23;9.95;;;4.10;;
24467;SDS011;12634;50.852;5.676;2023-06-10T13:01:52;6.32;;;4.20;;
24467;SDS011;12634;50.852;5.676;2023-06-10T13:04:19;6.35;;;4.10;;
24467;SDS011;12634;50.852;5.676;2023-06-10T13:06:48;6.00;;;3.63;;
24467;SDS011;12634;50.852;5.676;2023-06-10T13:09:15;7.93;;;3.85;;
24467;SDS011;12634;50.852;5.676;2023-06-10T13:11:42;5.68;;;4.00;;
24467;SDS011;12634;50.852;5.676;2023-06-10T13:14:10;6.47;;;3.78;;
24467;SDS011;12634;50.852;5.676;2023-06-10T13:16:37;7.72;;;3.78;;
24467;SDS011;12634;50.852;5.676;2023-06-10T13:19:06;5.78;;;3.83;;
24467;SDS011;12634;50.852;5.676;2023-06-10T13:21:33;7.32;;;3.90;;
24467;SDS011;12634;50.852;5.676;2023-06-10T13:24:01;6.50;;;4.00;;
24467;SDS011;12634;50.852;5.676;2023-06-10T13:26:28;6.32;;;3.72;;
24467;SDS011;12634;50.852;5.676;2023-06-10T13:28:55;6.30;;;3.70;;
24467;SDS011;12634;50.852;5.676;2023-06-10T13:31:22;6.22;;;3.72;;
24467;SDS011;12634;50.852;5.676;2023-06-10T13:33:50;4.47;;;3.20;;
24467;SDS011;12634;50.852;5.676;2023-06-10T13:36:18;4.70;;;3.47;;
24467;SDS011;12634;50.852;5.676;2023-06-10T13:38:46;6.63;;;3.85;;
24467;SDS011;12634;50.852;5.676;2023-06-10T13:41:13;7.65;;;4.00;;
24467;SDS011;12634;50.852;5.676;2023-06-10T13:43:41;5.45;;;3.88;;
24467;SDS011;12634;50.852;5.676;2023-06-10T13:46:08;5.95;;;3.70;;
24467;SDS011;12634;50.852;5.676;2023-06-10T13:48:35;5.45;;;3.53;;
24467;SDS011;12634;50.852;5.676;2023-06-10T13:51:02;7.93;;;3.92;;
24467;SDS011;12634;50.852;5.676;2023-06-10T13:53:31;5.78;;;3.80;;
24467;SDS011;12634;50.852;5.676;2023-06-10T13:55:59;6.22;;;3.92;;
24467;SDS011;12634;50.852;5.676;2023-06-10T13:58:26;7.53;;;3.67;;
24467;SDS011;12634;50.852;5.676;2023-06-10T14:00:53;7.38;;;3.28;;
24467;SDS011;12634;50.852;5.676;2023-06-10T14:03:21;5.25;;;2.83;;
24467;SDS011;12634;50.852;5.676;2023-06-10T14:05:48;8.65;;;3.75;;
24467;SDS011;12634;50.852;5.676;2023-06-10T14:08:16;7.13;;;4.00;;
24467;SDS011;12634;50.852;5.676;2023-06-10T14:10:45;4.18;;;3.70;;
24467;SDS011;12634;50.852;5.676;2023-06-10T14:13:12;4.95;;;3.80;;
24467;SDS011;12634;50.852;5.676;2023-06-10T14:15:39;7.15;;;4.05;;
24467;SDS011;12634;50.852;5.676;2023-06-10T14:18:06;8.77;;;4.05;;
24467;SDS011;12634;50.852;5.676;2023-06-10T14:20:34;4.60;;;3.60;;
24467;SDS011;12634;50.852;5.676;2023-06-10T14:23:01;6.35;;;3.88;;
24467;SDS011;12634;50.852;5.676;2023-06-10T14:25:28;7.38;;;4.15;;
24467;SDS011;12634;50.852;5.676;2023-06-10T14:27:57;5.22;;;3.83;;
24467;SDS011;12634;50.852;5.676;2023-06-10T14:30:24;8.55;;;3.85;;
24467;SDS011;12634;50.852;5.676;2023-06-10T14:32:51;6.35;;;3.60;;
24467;SDS011;12634;50.852;5.676;2023-06-10T14:35:18;6.13;;;3.53;;
24467;SDS011;12634;50.852;5.676;2023-06-10T14:37:46;6.70;;;4.53;;
24467;SDS011;12634;50.852;5.676;2023-06-10T14:40:13;6.57;;;4.65;;
24467;SDS011;12634;50.852;5.676;2023-06-10T14:42:40;6.00;;;4.20;;
24467;SDS011;12634;50.852;5.676;2023-06-10T14:45:09;8.15;;;3.97;;
24467;SDS011;12634;50.852;5.676;2023-06-10T14:47:36;9.82;;;4.85;;
24467;SDS011;12634;50.852;5.676;2023-06-10T14:50:04;6.40;;;4.40;;
24467;SDS011;12634;50.852;5.676;2023-06-10T14:52:31;7.28;;;4.22;;
24467;SDS011;12634;50.852;5.676;2023-06-10T14:54:58;8.88;;;4.50;;